sensor_id;sensor_type;location;lat;lon;timestamp;pressure;altitude;pressure_sealevel;temperature;humidity
44309;BME280;30022;55.846;37.340;2023-02-28T00:01:17;46971.72;;;-143.51;100.00
44309;BME280;30022;55.846;37.340;2023-02-28T00:03:43;46985.53;;;-143.51;100.00
44309;BME280;30022;55.846;37.340;2023-02-28T00:06:09;46936.16;;;-143.51;100.00
44309;BME280;30022;55.846;37.340;2023-02-28T00:08:37;46959.84;;;-143.51;100.00
44309;BME280;30022;55.846;37.340;2023-02-28T00:11:04;46981.59;;;-143.51;100.00
44309;BME280;30022;55.846;37.340;2023-02-28T00:13:30;46957.88;;;-143.51;100.00
44309;BME280;30022;55.846;37.340;2023-02-28T00:15:59;46969.72;;;-143.51;100.00
44309;BME280;30022;55.846;37.340;2023-02-28T00:18:25;46973.69;;;-143.51;100.00
44309;BME280;30022;55.846;37.340;2023-02-28T00:20:51;46981.59;;;-143.51;100.00
44309;BME280;30022;55.846;37.340;2023-02-28T00:23:16;46971.72;;;-143.51;100.00
44309;BME280;30022;55.846;37.340;2023-02-28T00:25:42;46983.56;;;-143.51;100.00
44309;BME280;30022;55.846;37.340;2023-02-28T00:28:08;46977.63;;;-143.51;100.00
44309;BME280;30022;55.846;37.340;2023-02-28T00:30:33;46971.72;;;-143.51;100.00
44309;BME280;30022;55.846;37.340;2023-02-28T00:32:59;46940.09;;;-143.51;100.00
44309;BME280;30022;55.846;37.340;2023-02-28T00:35:24;46989.47;;;-143.51;100.00
44309;BME280;30022;55.846;37.340;2023-02-28T00:37:50;46979.59;;;-143.51;100.00
44309;BME280;30022;55.846;37.340;2023-02-28T00:40:16;46967.75;;;-143.51;100.00
44309;BME280;30022;55.846;37.340;2023-02-28T00:42:41;46991.47;;;-143.51;100.00
44309;BME280;30022;55.846;37.340;2023-02-28T00:45:07;46969.72;;;-143.51;100.00
44309;BME280;30022;55.846;37.340;2023-02-28T00:47:33;46969.72;;;-143.51;100.00
44309;BME280;30022;55.846;37.340;2023-02-28T00:49:59;46973.69;;;-143.51;100.00
44309;BME280;30022;55.846;37.340;2023-02-28T00:52:25;46959.84;;;-143.51;100.00
44309;BME280;30022;55.846;37.340;2023-02-28T00:54:53;46979.59;;;-143.51;100.00
44309;BME280;30022;55.846;37.340;2023-02-28T00:57:19;46965.78;;;-143.51;100.00
44309;BME280;30022;55.846;37.340;2023-02-28T00:59:44;46979.59;;;-143.51;100.00
44309;BME280;30022;55.846;37.340;2023-02-28T01:02:10;46965.78;;;-143.51;100.00
44309;BME280;30022;55.846;37.340;2023-02-28T01:04:36;46981.59;;;-143.51;100.00
44309;BME280;30022;55.846;37.340;2023-02-28T01:07:01;46977.63;;;-143.51;100.00
44309;BME280;30022;55.846;37.340;2023-02-28T01:09:27;46979.59;;;-143.51;100.00
44309;BME280;30022;55.846;37.340;2023-02-28T01:11:53;46983.56;;;-143.51;100.00
44309;BME280;30022;55.846;37.340;2023-02-28T01:14:19;46948.00;;;-143.51;100.00
44309;BME280;30022;55.846;37.340;2023-02-28T01:16:44;46965.78;;;-143.51;100.00
44309;BME280;30022;55.846;37.340;2023-02-28T01:19:10;46949.97;;;-143.51;100.00
44309;BME280;30022;55.846;37.340;2023-02-28T01:21:37;46981.59;;;-143.51;100.00
44309;BME280;30022;55.846;37.340;2023-02-28T01:24:03;46989.47;;;-143.51;100.00
44309;BME280;30022;55.846;37.340;2023-02-28T01:26:29;46979.59;;;-143.51;100.00
44309;BME280;30022;55.846;37.340;2023-02-28T01:28:55;46924.31;;;-143.51;100.00
44309;BME280;30022;55.846;37.340;2023-02-28T01:31:20;46949.97;;;-143.51;100.00
44309;BME280;30022;55.846;37.340;2023-02-28T01:33:47;46949.97;;;-143.51;100.00
44309;BME280;30022;55.846;37.340;2023-02-28T01:36:14;46965.78;;;-143.51;100.00
44309;BME280;30022;55.846;37.340;2023-02-28T01:38:41;46985.53;;;-143.51;100.00
44309;BME280;30022;55.846;37.340;2023-02-28T01:41:07;46961.84;;;-143.51;100.00
44309;BME280;30022;55.846;37.340;2023-02-28T01:46:08;46973.69;;;-143.51;100.00
44309;BME280;30022;55.846;37.340;2023-02-28T01:48:38;46963.81;;;-143.51;100.00
44309;BME280;30022;55.846;37.340;2023-02-28T01:51:50;46973.69;;;-143.51;100.00
44309;BME280;30022;55.846;37.340;2023-02-28T01:53:55;46924.31;;;-143.51;100.00
44309;BME280;30022;55.846;37.340;2023-02-28T01:56:23;46955.91;;;-143.51;100.00
44309;BME280;30022;55.846;37.340;2023-02-28T01:58:50;46940.09;;;-143.51;100.00
44309;BME280;30022;55.846;37.340;2023-02-28T02:01:16;46946.03;;;-143.51;100.00
44309;BME280;30022;55.846;37.340;2023-02-28T02:03:57;46946.03;;;-143.51;100.00
44309;BME280;30022;55.846;37.340;2023-02-28T02:06:24;46938.13;;;-143.51;100.00
44309;BME280;30022;55.846;37.340;2023-02-28T02:08:50;46942.09;;;-143.51;100.00
44309;BME280;30022;55.846;37.340;2023-02-28T02:11:18;46944.06;;;-143.51;100.00
44309;BME280;30022;55.846;37.340;2023-02-28T02:16:34;46942.09;;;-143.51;100.00
44309;BME280;30022;55.846;37.340;2023-02-28T02:19:15;46930.22;;;-143.51;100.00
44309;BME280;30022;55.846;37.340;2023-02-28T02:34:37;46920.34;;;-143.51;100.00
44309;BME280;30022;55.846;37.340;2023-02-28T02:37:24;46926.28;;;-143.51;100.00
44309;BME280;30022;55.846;37.340;2023-02-28T02:42:45;46946.03;;;-143.51;100.00
44309;BME280;30022;55.846;37.340;2023-02-28T02:45:25;46938.13;;;-143.51;100.00
44309;BME280;30022;55.846;37.340;2023-02-28T02:47:53;46918.38;;;-143.51;100.00
44309;BME280;30022;55.846;37.340;2023-02-28T02:50:26;46928.25;;;-143.51;100.00
44309;BME280;30022;55.846;37.340;2023-02-28T02:52:57;46959.84;;;-143.51;100.00
44309;BME280;30022;55.846;37.340;2023-02-28T02:55:26;46946.03;;;-143.51;100.00
44309;BME280;30022;55.846;37.340;2023-02-28T02:57:59;46949.97;;;-143.51;100.00
44309;BME280;30022;55.846;37.340;2023-02-28T03:00:28;46920.34;;;-143.51;100.00
44309;BME280;30022;55.846;37.340;2023-02-28T03:02:56;46918.38;;;-143.51;100.00
44309;BME280;30022;55.846;37.340;2023-02-28T03:05:23;46951.97;;;-143.51;100.00
44309;BME280;30022;55.846;37.340;2023-02-28T03:07:50;46902.59;;;-143.51;100.00
44309;BME280;30022;55.846;37.340;2023-02-28T03:13:03;46949.97;;;-143.51;100.00
44309;BME280;30022;55.846;37.340;2023-02-28T03:15:45;46912.47;;;-143.51;100.00
44309;BME280;30022;55.846;37.340;2023-02-28T03:18:18;46922.34;;;-143.51;100.00
44309;BME280;30022;55.846;37.340;2023-02-28T03:20:54;46938.13;;;-143.51;100.00
44309;BME280;30022;55.846;37.340;2023-02-28T03:23:35;46946.03;;;-143.51;100.00
44309;BME280;30022;55.846;37.340;2023-02-28T03:26:07;46918.38;;;-143.51;100.00
44309;BME280;30022;55.846;37.340;2023-02-28T03:33:42;46900.59;;;-143.51;100.00
44309;BME280;30022;55.846;37.340;2023-02-28T03:36:13;46926.28;;;-143.51;100.00
44309;BME280;30022;55.846;37.340;2023-02-28T03:41:10;46924.31;;;-143.51;100.00
44309;BME280;30022;55.846;37.340;2023-02-28T03:43:38;46916.41;;;-143.51;100.00
44309;BME280;30022;55.846;37.340;2023-02-28T03:46:07;46906.53;;;-143.51;100.00
44309;BME280;30022;55.846;37.340;2023-02-28T03:51:05;46944.06;;;-143.51;100.00
44309;BME280;30022;55.846;37.340;2023-02-28T03:53:35;46953.94;;;-143.51;100.00
44309;BME280;30022;55.846;37.340;2023-02-28T03:56:11;46886.78;;;-143.51;100.00
44309;BME280;30022;55.846;37.340;2023-02-28T03:58:49;46932.22;;;-143.51;100.00
44309;BME280;30022;55.846;37.340;2023-02-28T04:01:21;46910.47;;;-143.51;100.00
44309;BME280;30022;55.846;37.340;2023-02-28T04:03:49;46908.50;;;-143.51;100.00
44309;BME280;30022;55.846;37.340;2023-02-28T04:06:19;46920.34;;;-143.51;100.00
44309;BME280;30022;55.846;37.340;2023-02-28T04:08:45;46916.41;;;-143.51;100.00
44309;BME280;30022;55.846;37.340;2023-02-28T04:11:22;46918.38;;;-143.51;100.00
44309;BME280;30022;55.846;37.340;2023-02-28T04:13:48;46910.47;;;-143.51;100.00
44309;BME280;30022;55.846;37.340;2023-02-28T04:16:13;46870.97;;;-143.51;100.00
44309;BME280;30022;55.846;37.340;2023-02-28T04:18:39;46910.47;;;-143.51;100.00
44309;BME280;30022;55.846;37.340;2023-02-28T04:21:05;46890.72;;;-143.51;100.00
44309;BME280;30022;55.846;37.340;2023-02-28T04:23:31;46928.25;;;-143.51;100.00
44309;BME280;30022;55.846;37.340;2023-02-28T04:25:57;46902.59;;;-143.51;100.00
44309;BME280;30022;55.846;37.340;2023-02-28T04:28:23;46908.50;;;-143.51;100.00
44309;BME280;30022;55.846;37.340;2023-02-28T04:30:54;46898.63;;;-143.51;100.00
44309;BME280;30022;55.846;37.340;2023-02-28T04:33:19;46900.59;;;-143.51;100.00
44309;BME280;30022;55.846;37.340;2023-02-28T04:35:45;46902.59;;;-143.51;100.00
44309;BME280;30022;55.846;37.340;2023-02-28T04:38:10;46914.44;;;-143.51;100.00
44309;BME280;30022;55.846;37.340;2023-02-28T04:40:36;46900.59;;;-143.51;100.00
44309;BME280;30022;55.846;37.340;2023-02-28T04:43:01;46916.41;;;-143.51;100.00
44309;BME280;30022;55.846;37.340;2023-02-28T04:45:28;46874.94;;;-143.51;100.00
44309;BME280;30022;55.846;37.340;2023-02-28T04:47:57;46861.09;;;-143.51;100.00
44309;BME280;30022;55.846;37.340;2023-02-28T04:50:23;46906.53;;;-143.51;100.00
44309;BME280;30022;55.846;37.340;2023-02-28T04:52:48;46906.53;;;-143.51;100.00
44309;BME280;30022;55.846;37.340;2023-02-28T04:55:14;46888.75;;;-143.51;100.00
44309;BME280;30022;55.846;37.340;2023-02-28T04:57:40;46898.63;;;-143.51;100.00
44309;BME280;30022;55.846;37.340;2023-02-28T05:00:08;46900.59;;;-143.51;100.00
44309;BME280;30022;55.846;37.340;2023-02-28T05:02:37;46898.63;;;-143.51;100.00
44309;BME280;30022;55.846;37.340;2023-02-28T05:05:04;46904.56;;;-143.51;100.00
44309;BME280;30022;55.846;37.340;2023-02-28T05:07:29;46876.91;;;-143.51;100.00
44309;BME280;30022;55.846;37.340;2023-02-28T05:09:55;46892.72;;;-143.51;100.00
44309;BME280;30022;55.846;37.340;2023-02-28T05:12:21;46886.78;;;-143.51;100.00
44309;BME280;30022;55.846;37.340;2023-02-28T05:14:46;46900.59;;;-143.51;100.00
44309;BME280;30022;55.846;37.340;2023-02-28T05:17:12;46880.84;;;-143.51;100.00
44309;BME280;30022;55.846;37.340;2023-02-28T05:19:37;46855.19;;;-143.51;100.00
44309;BME280;30022;55.846;37.340;2023-02-28T05:22:03;46869.00;;;-143.51;100.00
44309;BME280;30022;55.846;37.340;2023-02-28T05:24:29;46869.00;;;-143.51;100.00
44309;BME280;30022;55.846;37.340;2023-02-28T05:26:55;46904.56;;;-143.51;100.00
44309;BME280;30022;55.846;37.340;2023-02-28T05:29:20;46863.09;;;-143.51;100.00
44309;BME280;30022;55.846;37.340;2023-02-28T05:31:46;46872.97;;;-143.51;100.00
44309;BME280;30022;55.846;37.340;2023-02-28T05:34:15;46843.34;;;-143.51;100.00
44309;BME280;30022;55.846;37.340;2023-02-28T05:36:41;46880.84;;;-143.51;100.00
44309;BME280;30022;55.846;37.340;2023-02-28T05:39:07;46869.00;;;-143.51;100.00
44309;BME280;30022;55.846;37.340;2023-02-28T05:41:38;46874.94;;;-143.51;100.00
44309;BME280;30022;55.846;37.340;2023-02-28T05:44:04;46851.22;;;-143.51;100.00
44309;BME280;30022;55.846;37.340;2023-02-28T05:46:29;46878.88;;;-143.51;100.00
44309;BME280;30022;55.846;37.340;2023-02-28T05:48:55;46857.16;;;-143.51;100.00
44309;BME280;30022;55.846;37.340;2023-02-28T05:51:23;46837.41;;;-143.51;100.00
44309;BME280;30022;55.846;37.340;2023-02-28T05:53:48;46863.09;;;-143.51;100.00
44309;BME280;30022;55.846;37.340;2023-02-28T05:56:14;46849.25;;;-143.51;100.00
44309;BME280;30022;55.846;37.340;2023-02-28T05:58:40;46870.97;;;-143.51;100.00
44309;BME280;30022;55.846;37.340;2023-02-28T06:01:19;46867.03;;;-143.51;100.00
44309;BME280;30022;55.846;37.340;2023-02-28T06:03:46;46861.09;;;-143.51;100.00
44309;BME280;30022;55.846;37.340;2023-02-28T06:06:11;46821.59;;;-143.51;100.00
44309;BME280;30022;55.846;37.340;2023-02-28T06:08:37;46841.34;;;-143.51;100.00
44309;BME280;30022;55.846;37.340;2023-02-28T06:11:05;46807.78;;;-143.51;100.00
44309;BME280;30022;55.846;37.340;2023-02-28T06:13:32;46835.44;;;-143.51;100.00
44309;BME280;30022;55.846;37.340;2023-02-28T06:16:00;46837.41;;;-143.51;100.00
44309;BME280;30022;55.846;37.340;2023-02-28T06:18:26;46823.59;;;-143.51;100.00
44309;BME280;30022;55.846;37.340;2023-02-28T06:20:54;46835.44;;;-143.51;100.00
44309;BME280;30022;55.846;37.340;2023-02-28T06:23:20;46811.72;;;-143.51;100.00
44309;BME280;30022;55.846;37.340;2023-02-28T06:25:46;46791.97;;;-143.51;100.00
44309;BME280;30022;55.846;37.340;2023-02-28T06:28:12;46811.72;;;-143.51;100.00
44309;BME280;30022;55.846;37.340;2023-02-28T06:30:38;46795.94;;;-143.51;100.00
44309;BME280;30022;55.846;37.340;2023-02-28T06:33:03;46760.38;;;-143.51;100.00
44309;BME280;30022;55.846;37.340;2023-02-28T06:35:29;46799.88;;;-143.51;100.00
44309;BME280;30022;55.846;37.340;2023-02-28T06:37:54;46819.63;;;-143.51;100.00
44309;BME280;30022;55.846;37.340;2023-02-28T06:40:20;46791.97;;;-143.51;100.00
44309;BME280;30022;55.846;37.340;2023-02-28T06:42:46;46784.09;;;-143.51;100.00
44309;BME280;30022;55.846;37.340;2023-02-28T06:45:11;46780.13;;;-143.51;100.00
44309;BME280;30022;55.846;37.340;2023-02-28T06:47:38;46791.97;;;-143.51;100.00
44309;BME280;30022;55.846;37.340;2023-02-28T06:50:04;46788.03;;;-143.51;100.00
44309;BME280;30022;55.846;37.340;2023-02-28T06:52:30;46780.13;;;-143.51;100.00
44309;BME280;30022;55.846;37.340;2023-02-28T06:54:55;46809.75;;;-143.51;100.00
44309;BME280;30022;55.846;37.340;2023-02-28T06:57:29;46780.13;;;-143.51;100.00
44309;BME280;30022;55.846;37.340;2023-02-28T06:59:58;46772.22;;;-143.51;100.00
44309;BME280;30022;55.846;37.340;2023-02-28T07:02:24;46770.25;;;-143.51;100.00
44309;BME280;30022;55.846;37.340;2023-02-28T07:04:50;46788.03;;;-143.51;100.00
44309;BME280;30022;55.846;37.340;2023-02-28T07:07:15;46797.91;;;-143.51;100.00
44309;BME280;30022;55.846;37.340;2023-02-28T07:09:41;46780.13;;;-143.51;100.00
44309;BME280;30022;55.846;37.340;2023-02-28T07:12:09;46795.94;;;-143.51;100.00
44309;BME280;30022;55.846;37.340;2023-02-28T07:14:36;46807.78;;;-143.51;100.00
44309;BME280;30022;55.846;37.340;2023-02-28T07:17:01;46786.06;;;-143.51;100.00
44309;BME280;30022;55.846;37.340;2023-02-28T07:19:29;46809.75;;;-143.51;100.00
44309;BME280;30022;55.846;37.340;2023-02-28T07:21:55;46819.63;;;-143.51;100.00
44309;BME280;30022;55.846;37.340;2023-02-28T07:24:20;46815.69;;;-143.51;100.00
44309;BME280;30022;55.846;37.340;2023-02-28T07:26:46;46772.22;;;-143.51;100.00
44309;BME280;30022;55.846;37.340;2023-02-28T07:29:12;46815.69;;;-143.51;100.00
44309;BME280;30022;55.846;37.340;2023-02-28T07:31:37;46807.78;;;-143.51;100.00
44309;BME280;30022;55.846;37.340;2023-02-28T07:34:03;46797.91;;;-143.51;100.00
44309;BME280;30022;55.846;37.340;2023-02-28T07:36:29;46766.31;;;-143.51;100.00
44309;BME280;30022;55.846;37.340;2023-02-28T07:38:54;46791.97;;;-143.51;100.00
44309;BME280;30022;55.846;37.340;2023-02-28T07:41:21;46788.03;;;-143.51;100.00
44309;BME280;30022;55.846;37.340;2023-02-28T07:43:49;46803.84;;;-143.51;100.00
44309;BME280;30022;55.846;37.340;2023-02-28T07:46:15;46776.19;;;-143.51;100.00
44309;BME280;30022;55.846;37.340;2023-02-28T07:48:41;46809.75;;;-143.51;100.00
44309;BME280;30022;55.846;37.340;2023-02-28T07:51:07;46819.63;;;-143.51;100.00
44309;BME280;30022;55.846;37.340;2023-02-28T07:53:32;46813.72;;;-143.51;100.00
44309;BME280;30022;55.846;37.340;2023-02-28T07:55:59;46795.94;;;-143.51;100.00
44309;BME280;30022;55.846;37.340;2023-02-28T07:58:25;46809.75;;;-143.51;100.00
44309;BME280;30022;55.846;37.340;2023-02-28T08:00:51;46797.91;;;-143.51;100.00
44309;BME280;30022;55.846;37.340;2023-02-28T08:03:17;46774.22;;;-143.51;100.00
44309;BME280;30022;55.846;37.340;2023-02-28T08:05:43;46841.34;;;-143.51;100.00
44309;BME280;30022;55.846;37.340;2023-02-28T08:08:09;46821.59;;;-143.51;100.00
44309;BME280;30022;55.846;37.340;2023-02-28T08:10:35;46845.31;;;-143.51;100.00
44309;BME280;30022;55.846;37.340;2023-02-28T08:13:01;46876.91;;;-143.51;100.00
44309;BME280;30022;55.846;37.340;2023-02-28T08:15:27;46827.53;;;-143.51;100.00
44309;BME280;30022;55.846;37.340;2023-02-28T08:17:52;46857.16;;;-143.51;100.00
44309;BME280;30022;55.846;37.340;2023-02-28T08:20:18;46786.06;;;-143.51;100.00
44309;BME280;30022;55.846;37.340;2023-02-28T08:22:44;46811.72;;;-143.51;100.00
44309;BME280;30022;55.846;37.340;2023-02-28T08:25:12;46833.47;;;-143.51;100.00
44309;BME280;30022;55.846;37.340;2023-02-28T08:27:37;46853.22;;;-143.51;100.00
44309;BME280;30022;55.846;37.340;2023-02-28T08:30:03;46845.31;;;-143.51;100.00
44309;BME280;30022;55.846;37.340;2023-02-28T08:32:29;46884.81;;;-143.51;100.00
44309;BME280;30022;55.846;37.340;2023-02-28T08:34:55;46926.28;;;-143.51;100.00
44309;BME280;30022;55.846;37.340;2023-02-28T08:37:21;46922.34;;;-143.51;100.00
44309;BME280;30022;55.846;37.340;2023-02-28T08:39:47;46957.88;;;-143.51;100.00
44309;BME280;30022;55.846;37.340;2023-02-28T08:42:12;46914.44;;;-143.51;100.00
44309;BME280;30022;55.846;37.340;2023-02-28T08:44:39;46914.44;;;-143.51;100.00
44309;BME280;30022;55.846;37.340;2023-02-28T08:47:06;46916.41;;;-143.51;100.00
44309;BME280;30022;55.846;37.340;2023-02-28T08:49:32;46872.97;;;-143.51;100.00
44309;BME280;30022;55.846;37.340;2023-02-28T08:51:57;46912.47;;;-143.51;100.00
44309;BME280;30022;55.846;37.340;2023-02-28T08:54:23;46910.47;;;-143.51;100.00
44309;BME280;30022;55.846;37.340;2023-02-28T08:56:49;46904.56;;;-143.51;100.00
44309;BME280;30022;55.846;37.340;2023-02-28T08:59:15;46886.78;;;-143.51;100.00
44309;BME280;30022;55.846;37.340;2023-02-28T09:01:41;46870.97;;;-143.51;100.00
44309;BME280;30022;55.846;37.340;2023-02-28T09:04:09;46859.13;;;-143.51;100.00
44309;BME280;30022;55.846;37.340;2023-02-28T09:06:36;46892.72;;;-143.51;100.00
44309;BME280;30022;55.846;37.340;2023-02-28T09:09:02;46908.50;;;-143.51;100.00
44309;BME280;30022;55.846;37.340;2023-02-28T09:11:29;46906.53;;;-143.51;100.00
44309;BME280;30022;55.846;37.340;2023-02-28T09:13:55;46886.78;;;-143.51;100.00
44309;BME280;30022;55.846;37.340;2023-02-28T09:16:21;46878.88;;;-143.51;100.00
44309;BME280;30022;55.846;37.340;2023-02-28T09:18:47;46863.09;;;-143.51;100.00
44309;BME280;30022;55.846;37.340;2023-02-28T09:21:13;46861.09;;;-143.51;100.00
44309;BME280;30022;55.846;37.340;2023-02-28T09:23:40;46890.72;;;-143.51;100.00
44309;BME280;30022;55.846;37.340;2023-02-28T09:26:06;46926.28;;;-143.51;100.00
44309;BME280;30022;55.846;37.340;2023-02-28T09:28:32;46914.44;;;-143.51;100.00
44309;BME280;30022;55.846;37.340;2023-02-28T09:30:57;46890.72;;;-143.51;100.00
44309;BME280;30022;55.846;37.340;2023-02-28T09:33:24;46884.81;;;-143.51;100.00
44309;BME280;30022;55.846;37.340;2023-02-28T09:35:50;46914.44;;;-143.51;100.00
44309;BME280;30022;55.846;37.340;2023-02-28T09:38:16;46908.50;;;-143.51;100.00
44309;BME280;30022;55.846;37.340;2023-02-28T09:40:49;46890.72;;;-143.51;100.00
44309;BME280;30022;55.846;37.340;2023-02-28T09:43:16;46878.88;;;-143.51;100.00
44309;BME280;30022;55.846;37.340;2023-02-28T09:45:44;46870.97;;;-143.51;100.00
44309;BME280;30022;55.846;37.340;2023-02-28T09:48:14;46920.34;;;-143.51;100.00
44309;BME280;30022;55.846;37.340;2023-02-28T09:50:42;46916.41;;;-143.51;100.00
44309;BME280;30022;55.846;37.340;2023-02-28T09:53:14;46910.47;;;-143.51;100.00
44309;BME280;30022;55.846;37.340;2023-02-28T09:55:43;46888.75;;;-143.51;100.00
44309;BME280;30022;55.846;37.340;2023-02-28T09:58:30;46886.78;;;-143.51;100.00
44309;BME280;30022;55.846;37.340;2023-02-28T10:01:00;46863.09;;;-143.51;100.00
44309;BME280;30022;55.846;37.340;2023-02-28T10:03:42;46888.75;;;-143.51;100.00
44309;BME280;30022;55.846;37.340;2023-02-28T10:06:18;46930.22;;;-143.51;100.00
44309;BME280;30022;55.846;37.340;2023-02-28T10:11:18;46886.78;;;-143.51;100.00
44309;BME280;30022;55.846;37.340;2023-02-28T10:13:50;46898.63;;;-143.51;100.00
44309;BME280;30022;55.846;37.340;2023-02-28T10:17:01;46910.47;;;-143.51;100.00
44309;BME280;30022;55.846;37.340;2023-02-28T10:19:18;46906.53;;;-143.51;100.00
44309;BME280;30022;55.846;37.340;2023-02-28T10:24:29;46892.72;;;-143.51;100.00
44309;BME280;30022;55.846;37.340;2023-02-28T10:29:40;46910.47;;;-143.51;100.00
44309;BME280;30022;55.846;37.340;2023-02-28T10:32:08;46906.53;;;-143.51;100.00
44309;BME280;30022;55.846;37.340;2023-02-28T10:34:36;46963.81;;;-143.51;100.00
44309;BME280;30022;55.846;37.340;2023-02-28T10:37:01;46959.84;;;-143.51;100.00
44309;BME280;30022;55.846;37.340;2023-02-28T10:39:42;46955.91;;;-143.51;100.00
44309;BME280;30022;55.846;37.340;2023-02-28T10:42:27;46926.28;;;-143.51;100.00
44309;BME280;30022;55.846;37.340;2023-02-28T10:47:31;46987.50;;;-143.51;100.00
44309;BME280;30022;55.846;37.340;2023-02-28T10:49:58;46946.03;;;-143.51;100.00
44309;BME280;30022;55.846;37.340;2023-02-28T10:52:33;46924.31;;;-143.51;100.00
44309;BME280;30022;55.846;37.340;2023-02-28T10:55:23;46967.75;;;-143.51;100.00
44309;BME280;30022;55.846;37.340;2023-02-28T10:57:48;46963.81;;;-143.51;100.00
44309;BME280;30022;55.846;37.340;2023-02-28T11:00:24;46963.81;;;-143.51;100.00
44309;BME280;30022;55.846;37.340;2023-02-28T11:02:56;46963.81;;;-143.51;100.00
44309;BME280;30022;55.846;37.340;2023-02-28T11:05:27;46993.44;;;-143.51;100.00
44309;BME280;30022;55.846;37.340;2023-02-28T11:08:02;46983.56;;;-143.51;100.00
44309;BME280;30022;55.846;37.340;2023-02-28T11:10:30;47009.22;;;-143.51;100.00
44309;BME280;30022;55.846;37.340;2023-02-28T11:12:59;47009.22;;;-143.51;100.00
44309;BME280;30022;55.846;37.340;2023-02-28T11:15:26;46959.84;;;-143.51;100.00
44309;BME280;30022;55.846;37.340;2023-02-28T11:17:57;46973.69;;;-143.51;100.00
44309;BME280;30022;55.846;37.340;2023-02-28T11:20:25;47025.03;;;-143.51;100.00
44309;BME280;30022;55.846;37.340;2023-02-28T11:22:52;47021.09;;;-143.51;100.00
44309;BME280;30022;55.846;37.340;2023-02-28T11:27:56;47070.47;;;-143.51;100.00
44309;BME280;30022;55.846;37.340;2023-02-28T11:30:25;47111.94;;;-143.51;100.00
44309;BME280;30022;55.846;37.340;2023-02-28T11:32:51;47242.28;;;-143.51;100.00
44309;BME280;30022;55.846;37.340;2023-02-28T11:35:18;47358.81;;;-143.51;100.00
44309;BME280;30022;55.846;37.340;2023-02-28T11:37:47;47467.47;;;-143.51;100.00
44309;BME280;30022;55.846;37.340;2023-02-28T11:40:22;47538.56;;;-143.51;100.00
44309;BME280;30022;55.846;37.340;2023-02-28T11:45:37;47680.81;;;-143.51;100.00
44309;BME280;30022;55.846;37.340;2023-02-28T11:50:39;47789.44;;;-143.51;100.00
44309;BME280;30022;55.846;37.340;2023-02-28T12:08:51;48046.25;;;-143.51;100.00
44309;BME280;30022;55.846;37.340;2023-02-28T12:16:40;48064.03;;;-143.51;100.00
44309;BME280;30022;55.846;37.340;2023-02-28T12:19:16;48099.59;;;-143.51;100.00
44309;BME280;30022;55.846;37.340;2023-02-28T12:24:22;48230.00;;;-143.51;100.00
44309;BME280;30022;55.846;37.340;2023-02-28T12:26:51;48170.72;;;-143.51;100.00
44309;BME280;30022;55.846;37.340;2023-02-28T12:29:26;48166.78;;;-143.51;100.00
44309;BME280;30022;55.846;37.340;2023-02-28T12:34:27;48307.03;;;-143.51;100.00
44309;BME280;30022;55.846;37.340;2023-02-28T12:36:54;48314.94;;;-143.51;100.00
44309;BME280;30022;55.846;37.340;2023-02-28T12:39:31;48275.44;;;-143.51;100.00
44309;BME280;30022;55.846;37.340;2023-02-28T12:41:59;48218.13;;;-143.51;100.00
44309;BME280;30022;55.846;37.340;2023-02-28T12:44:32;48166.78;;;-143.51;100.00
44309;BME280;30022;55.846;37.340;2023-02-28T12:47:00;48168.75;;;-143.51;100.00
44309;BME280;30022;55.846;37.340;2023-02-28T12:51:59;48075.91;;;-143.51;100.00
44309;BME280;30022;55.846;37.340;2023-02-28T12:54:35;48020.56;;;-143.51;100.00
44309;BME280;30022;55.846;37.340;2023-02-28T12:59:35;48030.47;;;-143.51;100.00
44309;BME280;30022;55.846;37.340;2023-02-28T13:07:28;47929.69;;;-143.51;100.00
44309;BME280;30022;55.846;37.340;2023-02-28T13:09:59;47872.41;;;-143.51;100.00
44309;BME280;30022;55.846;37.340;2023-02-28T13:12:25;47874.38;;;-143.51;100.00
44309;BME280;30022;55.846;37.340;2023-02-28T13:15:01;48010.69;;;-143.51;100.00
44309;BME280;30022;55.846;37.340;2023-02-28T13:17:28;47902.03;;;-143.51;100.00
44309;BME280;30022;55.846;37.340;2023-02-28T13:27:21;47902.03;;;-143.51;100.00
44309;BME280;30022;55.846;37.340;2023-02-28T13:29:49;48012.69;;;-143.51;100.00
44309;BME280;30022;55.846;37.340;2023-02-28T13:32:19;47900.06;;;-143.51;100.00
44309;BME280;30022;55.846;37.340;2023-02-28T13:39:46;47771.66;;;-143.51;100.00
44309;BME280;30022;55.846;37.340;2023-02-28T13:45:22;47963.28;;;-143.51;100.00
44309;BME280;30022;55.846;37.340;2023-02-28T13:47:44;47900.06;;;-143.51;100.00
44309;BME280;30022;55.846;37.340;2023-02-28T13:53:07;47937.59;;;-143.51;100.00
44309;BME280;30022;55.846;37.340;2023-02-28T14:05:44;47983.03;;;-143.51;100.00
44309;BME280;30022;55.846;37.340;2023-02-28T14:08:21;47913.91;;;-143.51;100.00
44309;BME280;30022;55.846;37.340;2023-02-28T14:11:02;48050.22;;;-143.51;100.00
44309;BME280;30022;55.846;37.340;2023-02-28T14:13:39;48032.44;;;-143.51;100.00
44309;BME280;30022;55.846;37.340;2023-02-28T14:16:10;47921.81;;;-143.51;100.00
44309;BME280;30022;55.846;37.340;2023-02-28T14:18:36;47985.03;;;-143.51;100.00
44309;BME280;30022;55.846;37.340;2023-02-28T14:31:52;48139.13;;;-143.51;100.00
44309;BME280;30022;55.846;37.340;2023-02-28T14:34:43;48226.03;;;-143.51;100.00